createdAt,value
2022-08-03T00:00:06.854Z,0
2022-08-03T00:01:23.151Z,0
2022-08-03T00:02:39.441Z,0
2022-08-03T00:03:55.738Z,0
2022-08-03T00:05:12.026Z,0
2022-08-03T00:06:28.327Z,0
2022-08-03T00:07:43.618Z,0
2022-08-03T00:08:59.927Z,0
2022-08-03T00:10:16.226Z,0
2022-08-03T00:11:32.511Z,0
2022-08-03T00:12:48.806Z,0
2022-08-03T00:14:05.088Z,0
2022-08-03T00:15:21.383Z,0
2022-08-03T00:16:36.700Z,0
2022-08-03T00:17:52.026Z,0
2022-08-03T00:19:07.332Z,0
2022-08-03T00:20:22.633Z,0
2022-08-03T00:21:38.931Z,0
2022-08-03T00:22:55.239Z,0
2022-08-03T00:24:11.526Z,0
2022-08-03T00:25:27.818Z,0
2022-08-03T00:26:44.105Z,0
2022-08-03T00:28:00.414Z,0
2022-08-03T00:29:16.695Z,0
2022-08-03T00:30:32.990Z,0
2022-08-03T00:31:49.292Z,0
2022-08-03T00:33:05.582Z,0
2022-08-03T00:34:21.871Z,0
2022-08-03T00:35:38.178Z,0
2022-08-03T00:36:53.480Z,0
2022-08-03T00:38:09.785Z,0
2022-08-03T00:39:26.064Z,0
2022-08-03T00:40:42.363Z,0
2022-08-03T00:41:58.655Z,0
2022-08-03T00:43:14.949Z,0
2022-08-03T00:44:31.253Z,0
2022-08-03T00:45:46.553Z,0
2022-08-03T00:47:01.876Z,0
2022-08-03T00:48:18.158Z,0
2022-08-03T00:49:34.455Z,0
2022-08-03T00:50:50.750Z,0
2022-08-03T00:52:07.052Z,0
2022-08-03T00:53:23.345Z,0
2022-08-03T00:54:39.633Z,0
2022-08-03T00:55:55.924Z,0
2022-08-03T00:57:12.223Z,0
2022-08-03T00:58:28.508Z,0
2022-08-03T00:59:44.816Z,0
2022-08-03T01:01:01.098Z,0
2022-08-03T01:02:17.393Z,0
2022-08-03T01:03:32.709Z,0
2022-08-03T01:04:48.995Z,0
2022-08-03T01:06:05.289Z,0
2022-08-03T01:07:21.592Z,0
2022-08-03T01:08:37.891Z,0
2022-08-03T01:09:54.184Z,0
2022-08-03T01:11:10.463Z,0
2022-08-03T01:12:25.778Z,0
2022-08-03T01:13:41.107Z,0
2022-08-03T01:14:56.413Z,0
2022-08-03T01:16:11.715Z,0
2022-08-03T01:17:28.013Z,0
2022-08-03T01:18:44.309Z,0
2022-08-03T01:20:00.605Z,0
2022-08-03T01:21:16.899Z,0
2022-08-03T01:22:33.191Z,0
2022-08-03T01:23:49.485Z,0
2022-08-03T01:25:05.791Z,0
2022-08-03T01:26:22.068Z,0
2022-08-03T01:27:38.359Z,0
2022-08-03T01:28:54.660Z,0
2022-08-03T01:30:10.948Z,0
2022-08-03T01:31:27.244Z,0
2022-08-03T01:32:42.566Z,0
2022-08-03T01:33:58.850Z,0
2022-08-03T01:35:15.158Z,0
2022-08-03T01:37:47.745Z,0
2022-08-03T01:39:04.041Z,0
2022-08-03T01:40:20.335Z,0
2022-08-03T01:41:36.624Z,0
2022-08-03T01:42:51.946Z,0
2022-08-03T01:44:07.240Z,0
2022-08-03T01:45:23.545Z,0
2022-08-03T01:46:39.841Z,0
2022-08-03T01:47:56.122Z,0
2022-08-03T01:49:12.433Z,0
2022-08-03T01:50:28.712Z,0
2022-08-03T01:51:45.021Z,0
2022-08-03T01:53:01.305Z,0
2022-08-03T01:54:17.595Z,0
2022-08-03T01:55:33.903Z,0
2022-08-03T01:56:50.199Z,0
2022-08-03T01:58:06.478Z,0
2022-08-03T01:59:22.771Z,0
2022-08-03T02:00:38.079Z,0
2022-08-03T02:01:54.374Z,0
2022-08-03T02:03:10.682Z,0
2022-08-03T02:04:26.968Z,0
2022-08-03T02:05:43.255Z,0
2022-08-03T02:06:59.551Z,0
2022-08-03T02:08:15.846Z,0
2022-08-03T02:09:31.162Z,0
2022-08-03T02:10:47.471Z,0
2022-08-03T02:12:02.769Z,0
2022-08-03T02:13:18.087Z,0
2022-08-03T02:14:33.402Z,0
2022-08-03T02:15:48.707Z,0
2022-08-03T02:17:04.017Z,0
2022-08-03T02:18:19.340Z,0
2022-08-03T02:19:35.622Z,0
2022-08-03T02:20:51.923Z,0
2022-08-03T02:22:08.228Z,0
2022-08-03T02:23:24.504Z,0
2022-08-03T02:24:40.797Z,0
2022-08-03T02:25:57.101Z,0
2022-08-03T02:27:13.397Z,0
2022-08-03T02:28:29.687Z,0
2022-08-03T02:29:45.992Z,0
2022-08-03T02:31:02.271Z,0
2022-08-03T02:32:18.568Z,0
2022-08-03T02:33:34.865Z,0
2022-08-03T02:34:50.173Z,0
2022-08-03T02:36:06.464Z,0
2022-08-03T02:37:22.756Z,0
2022-08-03T02:38:39.060Z,0
2022-08-03T02:39:55.358Z,0
2022-08-03T02:41:11.641Z,0
2022-08-03T02:42:27.948Z,0
2022-08-03T02:43:43.256Z,0
2022-08-03T02:44:58.568Z,0
2022-08-03T02:46:13.883Z,0
2022-08-03T02:47:29.185Z,0
2022-08-03T02:48:45.482Z,0
2022-08-03T02:50:01.782Z,0
2022-08-03T02:51:18.076Z,0
2022-08-03T02:52:34.365Z,0
2022-08-03T02:53:50.662Z,0
2022-08-03T02:55:06.951Z,0
2022-08-03T02:56:23.242Z,0
2022-08-03T02:57:39.535Z,0
2022-08-03T02:58:55.834Z,0
2022-08-03T03:00:12.137Z,0
2022-08-03T03:02:44.677Z,1
2022-08-03T03:03:59.984Z,0
2022-08-03T03:05:16.234Z,1
2022-08-03T03:06:32.466Z,1
2022-08-03T03:07:48.716Z,1
2022-08-03T03:09:04.958Z,2
2022-08-03T03:10:21.203Z,2
2022-08-03T03:11:37.447Z,1
2022-08-03T03:12:53.682Z,1
2022-08-03T03:14:08.946Z,2
2022-08-03T03:16:40.431Z,4
2022-08-03T03:17:55.692Z,8
2022-08-03T03:19:10.945Z,7
2022-08-03T03:20:27.200Z,9
2022-08-03T03:21:43.439Z,11
2022-08-03T03:22:59.664Z,16
2022-08-03T03:24:15.919Z,16
2022-08-03T03:25:32.161Z,17
2022-08-03T03:26:48.402Z,19
2022-08-03T03:28:04.637Z,23
2022-08-03T03:29:20.869Z,30
2022-08-03T03:30:37.123Z,35
2022-08-03T03:31:53.343Z,39
2022-08-03T03:33:09.584Z,46
2022-08-03T03:34:25.828Z,51
2022-08-03T03:35:41.095Z,59
2022-08-03T03:36:57.333Z,65
2022-08-03T03:38:13.576Z,74
2022-08-03T03:39:29.819Z,86
2022-08-03T03:40:46.053Z,96
2022-08-03T03:42:02.280Z,103
2022-08-03T03:43:18.538Z,112
2022-08-03T03:44:33.783Z,123
2022-08-03T03:45:49.054Z,138
2022-08-03T03:48:20.547Z,161
2022-08-03T03:49:35.802Z,176
2022-08-03T03:50:51.083Z,187
2022-08-03T03:52:06.329Z,202
2022-08-03T03:53:21.574Z,214
2022-08-03T03:54:37.824Z,234
2022-08-03T03:55:54.066Z,248
2022-08-03T03:57:10.297Z,262
2022-08-03T03:58:26.551Z,280
2022-08-03T03:59:42.783Z,294
2022-08-03T04:00:59.019Z,314
2022-08-03T04:02:15.266Z,328
2022-08-03T04:03:31.493Z,344
2022-08-03T04:04:47.746Z,361
2022-08-03T04:06:03.980Z,381
2022-08-03T04:07:20.212Z,392
2022-08-03T04:08:36.463Z,413
2022-08-03T04:09:51.712Z,427
2022-08-03T04:11:07.964Z,439
2022-08-03T04:12:24.188Z,456
2022-08-03T04:13:40.430Z,468
2022-08-03T04:14:56.681Z,488
2022-08-03T04:16:12.915Z,501
2022-08-03T04:17:29.167Z,516
2022-08-03T04:18:44.422Z,534
2022-08-03T04:19:59.666Z,549
2022-08-03T04:21:14.932Z,562
2022-08-03T04:22:30.203Z,576
2022-08-03T04:23:46.439Z,588
2022-08-03T04:25:02.670Z,602
2022-08-03T04:26:18.914Z,617
2022-08-03T04:28:51.393Z,649
2022-08-03T04:30:07.627Z,654
2022-08-03T04:31:23.871Z,666
2022-08-03T04:32:40.124Z,683
2022-08-03T04:33:56.360Z,696
2022-08-03T04:35:12.593Z,706
2022-08-03T04:36:28.840Z,729
2022-08-03T04:37:45.069Z,752
2022-08-03T04:39:00.328Z,772
2022-08-03T04:40:16.570Z,786
2022-08-03T04:41:32.817Z,806
2022-08-03T04:42:49.058Z,817
2022-08-03T04:44:05.294Z,827
2022-08-03T04:45:21.539Z,847
2022-08-03T04:46:37.775Z,860
2022-08-03T04:47:54.003Z,868
2022-08-03T04:49:09.280Z,899
2022-08-03T04:50:24.539Z,921
2022-08-03T04:51:40.768Z,928
2022-08-03T04:52:57.009Z,940
2022-08-03T04:54:13.249Z,947
2022-08-03T04:55:29.479Z,968
2022-08-03T04:56:45.724Z,991
2022-08-03T04:58:01.965Z,995
2022-08-03T04:59:18.199Z,1014
2022-08-03T05:00:34.439Z,1030
2022-08-03T05:01:50.695Z,1063
2022-08-03T05:03:06.924Z,1087
2022-08-03T05:04:23.178Z,1110
2022-08-03T05:05:39.398Z,1139
2022-08-03T05:06:54.671Z,1156
2022-08-03T05:08:10.895Z,1175
2022-08-03T05:09:27.149Z,1169
2022-08-03T05:11:59.626Z,1198
2022-08-03T05:13:15.861Z,1199
2022-08-03T05:14:32.094Z,1214
2022-08-03T05:15:48.345Z,1228
2022-08-03T05:17:03.609Z,1258
2022-08-03T05:18:18.851Z,1266
2022-08-03T05:19:35.112Z,1277
2022-08-03T05:20:51.334Z,1294
2022-08-03T05:22:07.581Z,1314
2022-08-03T05:23:23.823Z,1321
2022-08-03T05:24:40.053Z,1346
2022-08-03T05:27:12.542Z,1384
2022-08-03T05:28:28.781Z,1400
2022-08-03T05:29:45.018Z,1402
2022-08-03T05:31:01.269Z,1428
2022-08-03T05:32:17.499Z,1456
2022-08-03T05:34:49.978Z,1479
2022-08-03T05:36:05.245Z,1502
2022-08-03T05:37:20.507Z,1538
2022-08-03T05:38:35.759Z,1539
2022-08-03T05:39:51.022Z,1544
2022-08-03T05:41:07.247Z,1568
2022-08-03T05:42:22.510Z,1568
2022-08-03T05:43:37.779Z,1571
2022-08-03T05:44:54.017Z,1716
2022-08-03T05:46:10.256Z,1524
2022-08-03T05:47:25.524Z,1573
2022-08-03T05:48:41.745Z,1620
2022-08-03T05:49:58.003Z,1661
2022-08-03T05:51:14.243Z,1673
2022-08-03T05:52:30.476Z,1690
2022-08-03T05:53:46.722Z,1707
2022-08-03T05:55:02.952Z,1712
2022-08-03T05:56:18.217Z,1729
2022-08-03T05:57:33.463Z,1750
2022-08-03T05:58:49.703Z,1748
2022-08-03T06:00:05.945Z,1788
2022-08-03T06:01:22.192Z,1853
2022-08-03T06:02:38.428Z,1686
2022-08-03T06:03:54.681Z,1789
2022-08-03T06:05:10.913Z,1817
2022-08-03T06:06:27.158Z,1863
2022-08-03T06:07:43.401Z,1879
2022-08-03T06:08:59.638Z,1879
2022-08-03T06:10:15.868Z,1932
2022-08-03T06:11:32.118Z,1873
2022-08-03T06:12:48.343Z,1894
2022-08-03T06:15:19.851Z,1949
2022-08-03T06:16:36.097Z,1963
2022-08-03T06:17:52.323Z,1943
2022-08-03T06:19:08.559Z,2060
2022-08-03T06:20:24.818Z,2026
2022-08-03T06:21:41.056Z,1945
2022-08-03T06:22:57.282Z,2003
2022-08-03T06:24:12.545Z,2050
2022-08-03T06:25:27.805Z,2073
2022-08-03T06:26:43.076Z,2110
2022-08-03T06:27:58.323Z,2085
2022-08-03T06:29:14.561Z,2590
2022-08-03T06:30:30.805Z,1885
2022-08-03T06:31:47.050Z,1908
2022-08-03T06:33:03.294Z,2181
2022-08-03T06:34:19.515Z,2234
2022-08-03T06:35:35.758Z,2243
2022-08-03T06:36:52.012Z,2243
2022-08-03T06:38:08.235Z,2286
2022-08-03T06:39:24.482Z,2320
2022-08-03T06:40:40.733Z,2345
2022-08-03T06:41:56.972Z,2414
2022-08-03T06:43:13.200Z,2362
2022-08-03T06:44:28.455Z,2379
2022-08-03T06:45:44.704Z,2353
2022-08-03T06:47:00.950Z,2435
2022-08-03T06:48:17.180Z,2540
2022-08-03T06:49:33.417Z,2528
2022-08-03T06:50:49.666Z,2654
2022-08-03T06:52:05.907Z,2622
2022-08-03T06:53:21.164Z,2497
2022-08-03T06:54:36.413Z,2556
2022-08-03T06:55:51.684Z,2511
2022-08-03T06:57:06.941Z,2492
2022-08-03T06:58:23.172Z,1767
2022-08-03T06:59:39.408Z,2689
2022-08-03T07:00:55.666Z,2462
2022-08-03T07:02:11.899Z,2620
2022-08-03T07:03:28.139Z,2638
2022-08-03T07:04:44.388Z,2668
2022-08-03T07:06:00.628Z,2696
2022-08-03T07:07:16.848Z,2786
2022-08-03T07:08:33.102Z,2859
2022-08-03T07:09:49.344Z,2844
2022-08-03T07:11:05.581Z,2310
2022-08-03T07:12:21.810Z,2636
2022-08-03T07:13:37.078Z,2617
2022-08-03T07:14:53.318Z,2747
2022-08-03T07:16:09.555Z,2777
2022-08-03T07:17:25.799Z,2938
2022-08-03T07:18:42.000Z,2780
2022-08-03T07:19:58.271Z,2924
2022-08-03T07:21:14.522Z,2902
2022-08-03T07:22:29.777Z,2919
2022-08-03T07:23:45.042Z,3018
2022-08-03T07:25:01.275Z,2901
2022-08-03T07:26:17.508Z,2904
2022-08-03T07:27:33.758Z,2938
2022-08-03T07:28:49.994Z,2958
2022-08-03T07:30:06.236Z,2978
2022-08-03T07:31:22.464Z,2985
2022-08-03T07:32:38.709Z,3018
2022-08-03T07:33:54.000Z,2992
2022-08-03T07:35:11.194Z,3000
2022-08-03T07:36:27.428Z,3023
2022-08-03T07:37:43.679Z,3049
2022-08-03T07:38:59.903Z,3059
2022-08-03T07:40:15.173Z,3067
2022-08-03T07:41:31.407Z,3083
2022-08-03T07:42:47.644Z,3111
2022-08-03T07:44:03.886Z,3138
2022-08-03T07:45:20.124Z,3160
2022-08-03T07:46:36.365Z,3171
2022-08-03T07:47:52.602Z,3173
2022-08-03T07:49:07.878Z,3214
2022-08-03T07:50:23.121Z,3200
2022-08-03T07:51:38.396Z,3222
2022-08-03T07:52:53.646Z,3242
2022-08-03T07:54:08.899Z,3262
2022-08-03T07:55:24.153Z,3286
2022-08-03T07:56:39.412Z,3289
2022-08-03T07:57:54.676Z,3318
2022-08-03T07:59:10.919Z,3308
2022-08-03T08:00:27.164Z,3324
2022-08-03T08:01:43.394Z,3348
2022-08-03T08:02:59.628Z,3352
2022-08-03T08:04:15.881Z,3352
2022-08-03T08:05:32.117Z,3374
2022-08-03T08:06:48.355Z,3405
2022-08-03T08:08:04.595Z,3404
2022-08-03T08:09:20.841Z,3445
2022-08-03T08:10:37.077Z,3440
2022-08-03T08:11:53.317Z,3453
2022-08-03T08:13:09.561Z,3454
2022-08-03T08:14:24.819Z,3479
2022-08-03T08:15:41.051Z,3545
2022-08-03T08:16:57.301Z,3445
2022-08-03T08:18:13.533Z,3506
2022-08-03T08:19:29.774Z,3540
2022-08-03T08:20:46.012Z,3543
2022-08-03T08:22:02.264Z,3519
2022-08-03T08:23:17.524Z,3683
2022-08-03T08:24:32.778Z,3532
2022-08-03T08:25:48.029Z,3585
2022-08-03T08:27:03.290Z,3548
2022-08-03T08:28:18.542Z,3427
2022-08-03T08:29:33.805Z,3454
2022-08-03T08:30:50.042Z,3596
2022-08-03T08:32:06.291Z,3732
2022-08-03T08:33:22.528Z,3783
2022-08-03T08:34:38.765Z,3824
2022-08-03T08:35:55.017Z,3878
2022-08-03T08:37:11.242Z,3879
2022-08-03T08:38:27.480Z,3859
2022-08-03T08:39:43.733Z,3864
2022-08-03T08:40:59.976Z,3838
2022-08-03T08:42:16.209Z,3821
2022-08-03T08:43:32.458Z,3812
2022-08-03T08:44:48.691Z,3804
2022-08-03T08:46:03.951Z,3843
2022-08-03T08:47:20.193Z,3839
2022-08-03T08:48:36.421Z,3802
2022-08-03T08:49:52.670Z,3765
2022-08-03T08:51:08.916Z,3814
2022-08-03T08:52:25.145Z,3851
2022-08-03T08:53:41.379Z,3857
2022-08-03T08:54:56.645Z,3987
2022-08-03T08:56:11.916Z,4019
2022-08-03T08:57:27.161Z,3809
2022-08-03T08:58:42.424Z,3582
2022-08-03T08:59:58.664Z,3213
2022-08-03T09:02:31.135Z,3822
2022-08-03T09:03:47.380Z,3910
2022-08-03T09:05:03.636Z,3968
2022-08-03T09:06:19.871Z,4058
2022-08-03T09:07:36.115Z,4072
2022-08-03T09:08:52.357Z,3984
2022-08-03T09:10:08.577Z,4122
2022-08-03T09:11:24.828Z,3925
2022-08-03T09:12:41.060Z,4118
2022-08-03T09:13:57.298Z,4005
2022-08-03T09:15:12.571Z,3983
2022-08-03T09:16:28.799Z,3773
2022-08-03T09:17:45.036Z,3922
2022-08-03T09:19:01.290Z,3954
2022-08-03T09:20:17.519Z,3949
2022-08-03T09:21:33.767Z,3850
2022-08-03T09:22:50.004Z,3890
2022-08-03T09:24:06.256Z,3688
2022-08-03T09:25:21.510Z,3948
2022-08-03T09:26:36.770Z,3788
2022-08-03T09:27:53.001Z,3977
2022-08-03T09:29:09.255Z,3995
2022-08-03T09:30:24.505Z,4013
2022-08-03T09:31:39.771Z,3968
2022-08-03T09:32:56.003Z,3995
2022-08-03T09:34:12.249Z,4067
2022-08-03T09:35:28.482Z,4099
2022-08-03T09:36:44.724Z,4059
2022-08-03T09:38:00.968Z,4112
2022-08-03T09:39:17.198Z,4182
2022-08-03T09:40:33.436Z,4071
2022-08-03T09:41:49.680Z,4097
2022-08-03T09:43:05.928Z,4095
2022-08-03T09:44:22.169Z,4258
2022-08-03T09:45:38.410Z,3930
2022-08-03T09:46:54.651Z,4033
2022-08-03T09:48:09.907Z,4032
2022-08-03T09:49:26.144Z,3960
2022-08-03T09:50:42.376Z,3914
2022-08-03T09:51:58.629Z,3947
2022-08-03T09:53:14.856Z,4024
2022-08-03T09:54:31.096Z,3957
2022-08-03T09:55:47.337Z,3883
2022-08-03T09:57:02.614Z,3916
2022-08-03T09:58:17.861Z,3975
2022-08-03T09:59:34.109Z,3988
2022-08-03T10:00:50.339Z,3971
2022-08-03T10:02:05.607Z,4052
2022-08-03T10:03:21.854Z,3945
2022-08-03T10:04:38.093Z,3991
2022-08-03T10:05:54.336Z,4607
2022-08-03T10:07:10.559Z,3216
2022-08-03T10:08:26.809Z,3824
2022-08-03T10:09:43.050Z,3876
2022-08-03T10:10:59.297Z,3891
2022-08-03T10:12:15.534Z,3803
2022-08-03T10:13:31.764Z,3846
2022-08-03T10:14:48.008Z,3879
2022-08-03T10:16:04.251Z,3769
2022-08-03T10:17:20.487Z,3904
2022-08-03T10:18:35.736Z,3763
2022-08-03T10:19:51.978Z,3740
2022-08-03T10:21:08.221Z,3795
2022-08-03T10:22:24.459Z,3649
2022-08-03T10:23:39.720Z,3669
2022-08-03T10:24:54.976Z,3624
2022-08-03T10:26:10.251Z,3666
2022-08-03T10:27:25.492Z,3791
2022-08-03T10:28:40.763Z,3536
2022-08-03T10:29:56.016Z,3585
2022-08-03T10:31:12.253Z,3698
2022-08-03T10:32:28.502Z,3581
2022-08-03T10:33:44.743Z,3435
2022-08-03T10:35:00.975Z,3466
2022-08-03T10:36:17.230Z,3424
2022-08-03T10:37:33.468Z,3461
2022-08-03T10:38:49.699Z,3507
2022-08-03T10:40:05.946Z,3409
2022-08-03T10:41:22.194Z,3407
2022-08-03T10:42:38.000Z,3427
2022-08-03T10:43:54.666Z,3419
2022-08-03T10:45:10.907Z,3349
2022-08-03T10:46:26.167Z,3289
2022-08-03T10:47:42.392Z,3333
2022-08-03T10:48:58.635Z,3257
2022-08-03T10:50:14.876Z,3277
2022-08-03T10:51:31.122Z,3284
2022-08-03T10:52:47.354Z,3256
2022-08-03T10:54:03.611Z,3232
2022-08-03T10:55:18.870Z,3186
2022-08-03T10:56:34.121Z,3235
2022-08-03T10:57:49.393Z,3224
2022-08-03T10:59:04.634Z,3218
2022-08-03T11:00:20.868Z,3131
2022-08-03T11:01:37.109Z,3189
2022-08-03T11:02:53.365Z,3188
2022-08-03T11:04:09.604Z,3177
2022-08-03T11:05:25.833Z,3134
2022-08-03T11:06:42.075Z,3242
2022-08-03T11:07:58.314Z,3210
2022-08-03T11:09:14.556Z,3201
2022-08-03T11:10:30.797Z,3184
2022-08-03T11:11:47.047Z,3169
2022-08-03T11:13:03.000Z,3165
2022-08-03T11:14:19.532Z,3158
2022-08-03T11:15:34.789Z,3141
2022-08-03T11:16:51.021Z,3138
2022-08-03T11:18:07.258Z,3143
2022-08-03T11:19:23.494Z,3107
2022-08-03T11:20:39.732Z,3102
2022-08-03T11:21:55.986Z,3105
2022-08-03T11:23:12.230Z,3070
2022-08-03T11:24:27.486Z,3045
2022-08-03T11:25:42.750Z,3094
2022-08-03T11:26:58.980Z,3058
2022-08-03T11:28:15.223Z,3080
2022-08-03T11:29:31.450Z,2959
2022-08-03T11:30:47.709Z,2926
2022-08-03T11:32:03.946Z,3016
2022-08-03T11:33:20.171Z,3037
2022-08-03T11:34:36.411Z,3031
2022-08-03T11:35:52.667Z,2964
2022-08-03T11:37:08.905Z,3008
2022-08-03T11:38:25.145Z,2837
2022-08-03T11:39:41.380Z,2964
2022-08-03T11:40:57.624Z,2955
2022-08-03T11:42:12.869Z,2950
2022-08-03T11:43:29.124Z,2842
2022-08-03T11:44:45.352Z,3158
2022-08-03T11:46:01.590Z,2837
2022-08-03T11:47:17.829Z,2962
2022-08-03T11:48:34.090Z,2965
2022-08-03T11:49:50.317Z,3000
2022-08-03T11:51:05.575Z,3043
2022-08-03T11:52:20.836Z,3033
2022-08-03T11:53:37.077Z,2994
2022-08-03T11:54:53.314Z,3037
2022-08-03T11:56:09.561Z,3025
2022-08-03T11:57:25.797Z,3014
2022-08-03T11:58:42.038Z,2987
2022-08-03T11:59:58.288Z,2965
2022-08-03T12:01:14.521Z,2958
2022-08-03T12:02:30.752Z,2944
2022-08-03T12:03:46.994Z,2898
2022-08-03T12:05:03.250Z,2905
2022-08-03T12:06:19.481Z,2888
2022-08-03T12:07:35.712Z,2940
2022-08-03T12:08:50.981Z,2883
2022-08-03T12:10:07.224Z,2862
2022-08-03T12:11:23.463Z,2851
2022-08-03T12:12:39.696Z,2878
2022-08-03T12:13:55.945Z,2754
2022-08-03T12:15:12.176Z,2798
2022-08-03T12:16:28.419Z,2929
2022-08-03T12:17:43.691Z,2666
2022-08-03T12:18:58.946Z,2799
2022-08-03T12:20:14.191Z,2663
2022-08-03T12:21:29.457Z,2671
2022-08-03T12:22:44.711Z,2325
2022-08-03T12:23:59.969Z,2600
2022-08-03T12:25:15.233Z,2684
2022-08-03T12:26:30.493Z,2577
2022-08-03T12:27:46.736Z,2617
2022-08-03T12:29:02.978Z,2621
2022-08-03T12:31:35.442Z,2805
2022-08-03T12:32:51.694Z,2314
2022-08-03T12:34:07.938Z,2617
2022-08-03T12:35:24.165Z,2450
2022-08-03T12:36:40.419Z,2644
2022-08-03T12:37:56.649Z,2609
2022-08-03T12:39:12.901Z,2645
2022-08-03T12:40:29.130Z,2611
2022-08-03T12:41:45.373Z,2858
2022-08-03T12:43:00.628Z,2442
2022-08-03T12:44:16.874Z,2599
2022-08-03T12:45:33.113Z,2421
2022-08-03T12:46:49.345Z,2501
2022-08-03T12:48:05.601Z,2353
2022-08-03T12:49:21.829Z,2355
2022-08-03T12:50:38.073Z,2445
2022-08-03T12:51:54.303Z,2497
2022-08-03T12:53:09.564Z,2476
2022-08-03T12:54:24.837Z,2415
2022-08-03T12:55:40.089Z,2453
2022-08-03T12:56:55.342Z,2411
2022-08-03T12:58:11.592Z,2389
2022-08-03T12:59:27.831Z,2387
2022-08-03T13:00:44.077Z,2359
2022-08-03T13:02:00.317Z,2340
2022-08-03T13:03:16.560Z,2379
2022-08-03T13:04:32.793Z,2306
2022-08-03T13:05:49.022Z,2346
2022-08-03T13:07:05.280Z,2341
2022-08-03T13:08:21.508Z,2217
2022-08-03T13:09:37.749Z,2245
2022-08-03T13:10:53.999Z,2229
2022-08-03T13:12:10.231Z,2242
2022-08-03T13:13:25.491Z,2196
2022-08-03T13:14:41.732Z,2363
2022-08-03T13:15:57.965Z,2214
2022-08-03T13:17:14.215Z,2119
2022-08-03T13:18:30.444Z,2166
2022-08-03T13:19:46.688Z,2157
2022-08-03T13:21:02.925Z,2162
2022-08-03T13:22:18.183Z,2157
2022-08-03T13:23:33.441Z,2169
2022-08-03T13:24:49.682Z,2162
2022-08-03T13:26:05.927Z,2187
2022-08-03T13:27:22.174Z,2171
2022-08-03T13:28:38.397Z,2104
2022-08-03T13:29:54.641Z,2193
2022-08-03T13:31:10.886Z,2265
2022-08-03T13:32:27.119Z,2223
2022-08-03T13:33:43.378Z,1966
2022-08-03T13:34:59.608Z,2266
2022-08-03T13:36:15.841Z,2103
2022-08-03T13:37:32.087Z,1900
2022-08-03T13:38:48.323Z,1973
2022-08-03T13:40:03.589Z,2064
2022-08-03T13:41:19.817Z,2057
2022-08-03T13:42:36.077Z,2245
2022-08-03T13:43:52.313Z,2078
2022-08-03T13:45:08.543Z,2158
2022-08-03T13:46:24.783Z,2185
2022-08-03T13:47:41.028Z,1980
2022-08-03T13:48:56.293Z,1889
2022-08-03T13:50:11.535Z,2068
2022-08-03T13:51:27.790Z,2114
2022-08-03T13:52:44.018Z,2133
2022-08-03T13:54:00.272Z,2145
2022-08-03T13:55:16.501Z,2111
2022-08-03T13:56:32.742Z,2141
2022-08-03T13:57:48.979Z,2073
2022-08-03T13:59:05.217Z,2128
2022-08-03T14:00:21.464Z,2043
2022-08-03T14:01:37.700Z,2044
2022-08-03T14:02:53.953Z,2088
2022-08-03T14:04:10.187Z,2020
2022-08-03T14:05:26.423Z,2003
2022-08-03T14:06:41.689Z,1995
2022-08-03T14:07:57.924Z,2012
2022-08-03T14:09:14.156Z,1983
2022-08-03T14:10:30.399Z,1958
2022-08-03T14:11:46.653Z,1947
2022-08-03T14:13:02.892Z,1960
2022-08-03T14:14:19.133Z,1867
2022-08-03T14:15:34.387Z,1963
2022-08-03T14:18:05.898Z,1827
2022-08-03T14:19:21.154Z,1845
2022-08-03T14:20:36.421Z,1832
2022-08-03T14:21:52.647Z,1792
2022-08-03T14:23:08.898Z,1813
2022-08-03T14:24:25.135Z,1853
2022-08-03T14:25:41.382Z,1794
2022-08-03T14:26:57.608Z,1917
2022-08-03T14:28:13.860Z,1858
2022-08-03T14:29:30.088Z,1930
2022-08-03T14:30:46.329Z,1930
2022-08-03T14:32:02.578Z,1919
2022-08-03T14:33:18.824Z,1879
2022-08-03T14:34:35.060Z,1972
2022-08-03T14:35:51.294Z,2027
2022-08-03T14:37:06.564Z,2140
2022-08-03T14:38:22.803Z,1914
2022-08-03T14:39:39.035Z,1772
2022-08-03T14:40:55.272Z,1802
2022-08-03T14:42:11.513Z,1794
2022-08-03T14:43:27.762Z,1866
2022-08-03T14:44:43.993Z,1824
2022-08-03T14:45:59.267Z,1830
2022-08-03T14:47:14.506Z,1938
2022-08-03T14:48:29.769Z,1914
2022-08-03T14:49:45.038Z,1924
2022-08-03T14:51:01.268Z,1915
2022-08-03T14:52:17.511Z,1926
2022-08-03T14:53:33.752Z,1966
2022-08-03T14:54:49.998Z,1918
2022-08-03T14:56:06.245Z,1995
2022-08-03T14:57:22.465Z,1941
2022-08-03T14:58:38.705Z,1932
2022-08-03T14:59:54.948Z,1792
2022-08-03T15:01:11.189Z,1957
2022-08-03T15:02:27.439Z,1837
2022-08-03T15:03:43.676Z,1953
2022-08-03T15:04:59.908Z,1901
2022-08-03T15:07:31.417Z,1928
2022-08-03T15:08:47.649Z,1939
2022-08-03T15:10:03.889Z,1832
2022-08-03T15:11:20.138Z,1822
2022-08-03T15:12:36.370Z,1728
2022-08-03T15:13:52.612Z,1711
2022-08-03T15:15:08.858Z,1739
2022-08-03T15:16:24.117Z,1767
2022-08-03T15:17:39.380Z,1752
2022-08-03T15:18:54.640Z,1844
2022-08-03T15:20:09.881Z,1800
2022-08-03T15:21:25.162Z,1544
2022-08-03T15:22:40.412Z,1659
2022-08-03T15:23:55.681Z,1630
2022-08-03T15:25:10.924Z,1662
2022-08-03T15:26:26.196Z,1663
2022-08-03T15:27:41.450Z,1666
2022-08-03T15:28:57.683Z,1693
2022-08-03T15:30:13.917Z,1702
2022-08-03T15:31:30.156Z,1723
2022-08-03T15:32:46.404Z,1758
2022-08-03T15:34:02.645Z,1733
2022-08-03T15:35:18.888Z,1943
2022-08-03T15:36:35.123Z,1838
2022-08-03T15:37:51.359Z,1867
2022-08-03T15:39:07.609Z,1617
2022-08-03T15:40:23.843Z,1660
2022-08-03T15:41:40.082Z,1478
2022-08-03T15:42:56.322Z,1638
2022-08-03T15:44:11.594Z,1824
2022-08-03T15:45:27.817Z,1741
2022-08-03T15:46:44.071Z,1518
2022-08-03T15:48:00.315Z,1478
2022-08-03T15:49:16.538Z,1600
2022-08-03T15:50:32.784Z,1626
2022-08-03T15:51:49.022Z,1712
2022-08-03T15:53:04.280Z,1462
2022-08-03T15:54:19.540Z,1628
2022-08-03T15:55:35.795Z,1991
2022-08-03T15:56:52.032Z,1025
2022-08-03T15:58:08.273Z,1633
2022-08-03T15:59:24.512Z,1444
2022-08-03T16:00:40.752Z,1922
2022-08-03T16:01:56.996Z,1828
2022-08-03T16:03:13.222Z,1596
2022-08-03T16:04:29.466Z,1533
2022-08-03T16:05:45.703Z,1444
2022-08-03T16:07:01.950Z,1256
2022-08-03T16:08:18.184Z,1299
2022-08-03T16:09:34.420Z,1312
2022-08-03T16:10:49.680Z,1350
2022-08-03T16:12:05.928Z,1661
2022-08-03T16:13:22.157Z,1629
2022-08-03T16:15:54.641Z,1634
2022-08-03T16:17:10.878Z,2102
2022-08-03T16:18:27.135Z,1774
2022-08-03T16:19:43.367Z,1611
2022-08-03T16:20:58.623Z,1521
2022-08-03T16:22:13.877Z,1503
2022-08-03T16:23:30.115Z,1256
2022-08-03T16:24:46.368Z,1727
2022-08-03T16:26:02.600Z,1058
2022-08-03T16:27:18.852Z,1639
2022-08-03T16:28:35.088Z,1771
2022-08-03T16:29:51.333Z,1464
2022-08-03T16:31:07.565Z,1333
2022-08-03T16:32:23.807Z,1534
2022-08-03T16:33:40.057Z,1434
2022-08-03T16:34:56.296Z,1379
2022-08-03T16:36:12.536Z,1362
2022-08-03T16:37:28.776Z,1353
2022-08-03T16:38:44.031Z,1333
2022-08-03T16:41:16.508Z,1189
2022-08-03T16:43:48.959Z,1435
2022-08-03T16:45:04.224Z,1023
2022-08-03T16:46:19.481Z,1062
2022-08-03T16:47:34.752Z,1344
2022-08-03T16:48:50.010Z,1378
2022-08-03T16:50:06.247Z,1374
2022-08-03T16:51:22.486Z,1387
2022-08-03T16:52:38.000Z,1352
2022-08-03T16:53:54.967Z,1440
2022-08-03T16:55:11.198Z,1396
2022-08-03T16:56:27.438Z,1340
2022-08-03T16:57:43.685Z,1550
2022-08-03T16:58:59.934Z,1327
2022-08-03T17:00:16.159Z,1069
2022-08-03T17:01:31.429Z,1178
2022-08-03T17:02:46.680Z,1311
2022-08-03T17:04:01.937Z,1338
2022-08-03T17:05:17.213Z,1397
2022-08-03T17:06:33.453Z,1238
2022-08-03T17:07:49.687Z,1336
2022-08-03T17:09:05.934Z,1335
2022-08-03T17:10:22.156Z,1394
2022-08-03T17:11:38.402Z,1360
2022-08-03T17:12:54.639Z,1369
2022-08-03T17:14:10.879Z,1319
2022-08-03T17:15:27.115Z,1367
2022-08-03T17:16:43.375Z,1309
2022-08-03T17:17:59.601Z,1337
2022-08-03T17:19:15.836Z,1307
2022-08-03T17:20:32.095Z,1312
2022-08-03T17:21:47.333Z,1260
2022-08-03T17:23:03.581Z,1277
2022-08-03T17:24:19.000Z,1282
2022-08-03T17:25:36.063Z,1294
2022-08-03T17:26:52.305Z,1271
2022-08-03T17:28:08.542Z,1214
2022-08-03T17:29:24.774Z,1217
2022-08-03T17:30:40.052Z,1192
2022-08-03T17:31:55.303Z,1166
2022-08-03T17:33:10.572Z,1143
2022-08-03T17:34:26.794Z,1121
2022-08-03T17:35:42.057Z,1117